Metar Aviation Weather Data ENHD

10°C Temp
4°C Dewpoint
% Humidity
Temperature
32 KM/H
20 MPH
17 KTS
140°
South East

Wind Speed
Clear
Conditions
Pressure 1008.92 (hPa) - 29.79 (in)
Visibility 6.2 (mi) - 10 (km)

Current Conditions
ENHD
Metar :ENHD 311220Z AUTO 14017KT 9999 NCD 10/04 Q1009
Sat 31st October 14:20 pm

  Metar Aviation API Data Provided by https://www.checkwx.com/ PHP scripts by weather34.com ©2020